| time (UTC) | temp F | wind direction | speed MPH | gust MPH | rain 1hr in | rain 24hr in | rain mn in | humidity % | barometer mb |
| 20260509123750 | 67 | 289 | 0.0 | 2.0 | 0.00 | 0.00 | 0.00 | 96 | 1042.4 |
| 20260509123247 | 67 | 327 | 0.0 | 1.0 | 0.00 | 0.00 | 0.00 | 96 | 1042.5 |
| 20260509122742 | 66 | 308 | 0.0 | 1.0 | 0.00 | 0.00 | 0.00 | 97 | 1042.3 |
| 20260509122239 | 65 | 292 | 1.0 | 2.0 | 0.00 | 0.00 | 0.00 | 97 | 1042.0 |
| 20260509121736 | 64 | 281 | 2.0 | 2.0 | 0.00 | 0.00 | 0.00 | 97 | 1041.9 |
| 20260509121233 | 64 | 292 | 2.0 | 3.0 | 0.00 | 0.00 | 0.00 | 96 | 1041.8 |
| 20260509120732 | 64 | 298 | 3.0 | 3.0 | 0.00 | 0.00 | 0.00 | 96 | 1041.7 |
| 20260509120229 | 64 | 298 | 2.0 | 3.0 | 0.00 | 0.00 | 0.00 | 96 | 1041.4 |
| 20260509115727 | 63 | 307 | 2.0 | 2.0 | 0.00 | 0.00 | 0.00 | 96 | 1041.4 |
| 20260509115224 | 63 | 309 | 2.0 | 2.0 | 0.00 | 0.00 | 0.00 | 96 | 1041.5 |
| 20260509114722 | 63 | 303 | 2.0 | 3.0 | 0.00 | 0.00 | 0.00 | 96 | 1041.8 |
| 20260509114221 | 63 | 299 | 1.0 | 2.0 | 0.00 | 0.00 | 0.00 | 96 | 1041.2 |
| 20260509113719 | 63 | 305 | 2.0 | 2.0 | 0.00 | 0.00 | 0.00 | 96 | 1041.3 |
| 20260509113216 | 63 | 314 | 2.0 | 2.0 | 0.00 | 0.00 | 0.00 | 96 | 1041.4 |
| 20260509112713 | 64 | 323 | 2.0 | 2.0 | 0.00 | 0.00 | 0.00 | 96 | 1041.1 |
| 20260509112210 | 64 | 313 | 1.0 | 2.0 | 0.00 | 0.00 | 0.00 | 96 | 1041.3 |
| 20260509111706 | 64 | 271 | 1.0 | 1.0 | 0.00 | 0.00 | 0.00 | 95 | 1041.0 |
| 20260509111203 | 64 | 264 | 2.0 | 2.0 | 0.00 | 0.00 | 0.00 | 95 | 1041.2 |
| 20260509110701 | 64 | 304 | 1.0 | 1.0 | 0.00 | 0.00 | 0.00 | 95 | 1040.9 |
| 20260509110157 | 64 | 307 | 0.0 | 2.0 | 0.00 | 0.00 | 0.00 | 95 | 1041.0 |
| 20260509105655 | 65 | 253 | 2.0 | 2.0 | 0.00 | 0.00 | 0.00 | 95 | 1040.9 |
| 20260509105153 | 65 | 70 | 0.0 | 1.0 | 0.00 | 0.00 | 0.00 | 95 | 1040.8 |
| 20260509104650 | 65 | 353 | 1.0 | 2.0 | 0.00 | 0.00 | 0.00 | 95 | 1040.7 |
| 20260509104147 | 65 | 334 | 1.0 | 2.0 | 0.00 | 0.00 | 0.00 | 95 | 1040.9 |
| 20260509103645 | 65 | 354 | 1.0 | 2.0 | 0.00 | 0.00 | 0.00 | 95 | 1040.8 |
| 20260509103142 | 65 | 350 | 2.0 | 3.0 | 0.00 | 0.00 | 0.00 | 94 | 1040.8 |
| 20260509102640 | 65 | 0 | 1.0 | 2.0 | 0.00 | 0.00 | 0.00 | 94 | 1040.9 |
| 20260509102136 | 65 | 2 | 2.0 | 4.0 | 0.00 | 0.00 | 0.00 | 94 | 1040.4 |
| 20260509101633 | 65 | 15 | 3.0 | 3.0 | 0.00 | 0.00 | 0.00 | 94 | 1040.4 |
| 20260509101129 | 65 | 358 | 3.0 | 3.0 | 0.00 | 0.00 | 0.00 | 94 | 1040.5 |
| 20260509100627 | 65 | 320 | 2.0 | 3.0 | 0.00 | 0.00 | 0.00 | 94 | 1040.4 |
| 20260509100124 | 66 | 9 | 2.0 | 3.0 | 0.00 | 0.00 | 0.00 | 94 | 1040.4 |
| 20260509095620 | 66 | 356 | 2.0 | 3.0 | 0.00 | 0.00 | 0.00 | 94 | 1040.4 |
| 20260509095118 | 66 | 38 | 2.0 | 2.0 | 0.00 | 0.00 | 0.00 | 93 | 1040.4 |
| 20260509094614 | 66 | 17 | 2.0 | 2.0 | 0.00 | 0.00 | 0.00 | 93 | 1040.7 |
| 20260509094111 | 66 | 20 | 3.0 | 3.0 | 0.00 | 0.00 | 0.00 | 93 | 1040.6 |
| 20260509093610 | 66 | 32 | 3.0 | 3.0 | 0.00 | 0.00 | 0.00 | 93 | 1040.4 |
| 20260509093106 | 66 | 31 | 2.0 | 3.0 | 0.00 | 0.00 | 0.00 | 93 | 1040.2 |
| 20260509092604 | 66 | 2 | 1.0 | 2.0 | 0.00 | 0.00 | 0.00 | 92 | 1040.5 |
| 20260509092103 | 66 | 30 | 2.0 | 3.0 | 0.00 | 0.00 | 0.00 | 92 | 1040.5 |
| 20260509091600 | 66 | 28 | 3.0 | 3.0 | 0.00 | 0.00 | 0.00 | 92 | 1040.3 |
| 20260509091056 | 66 | 6 | 2.0 | 3.0 | 0.00 | 0.00 | 0.00 | 92 | 1040.6 |
| 20260509090554 | 66 | 311 | 2.0 | 2.0 | 0.00 | 0.00 | 0.00 | 92 | 1040.3 |
| 20260509090051 | 67 | 358 | 2.0 | 2.0 | 0.00 | 0.00 | 0.00 | 92 | 1040.3 |
| 20260509085548 | 67 | 51 | 2.0 | 3.0 | 0.00 | 0.00 | 0.00 | 91 | 1040.2 |
| 20260509085044 | 67 | 54 | 3.0 | 5.0 | 0.00 | 0.00 | 0.00 | 91 | 1040.5 |
| 20260509084541 | 67 | 57 | 3.0 | 7.0 | 0.00 | 0.00 | 0.00 | 91 | 1040.3 |
| 20260509084038 | 67 | 27 | 3.0 | 6.0 | 0.00 | 0.00 | 0.00 | 91 | 1040.4 |
| 20260509083536 | 67 | 31 | 2.0 | 6.0 | 0.00 | 0.00 | 0.00 | 91 | 1040.7 |
| 20260509083032 | 67 | 34 | 3.0 | 7.0 | 0.00 | 0.00 | 0.00 | 91 | 1040.8 |
| 20260509082530 | 67 | 27 | 2.0 | 5.0 | 0.00 | 0.00 | 0.00 | 91 | 1040.8 |
| 20260509082027 | 68 | 33 | 5.0 | 7.0 | 0.00 | 0.00 | 0.00 | 90 | 1040.8 |
| 20260509081524 | 68 | 55 | 5.0 | 6.0 | 0.00 | 0.00 | 0.00 | 90 | 1040.9 |
| 20260509081021 | 68 | 26 | 3.0 | 4.0 | 0.00 | 0.00 | 0.00 | 90 | 1040.9 |
| 20260509080519 | 68 | 42 | 2.0 | 3.0 | 0.00 | 0.00 | 0.00 | 89 | 1041.1 |
| 20260509080017 | 68 | 29 | 2.0 | 4.0 | 0.00 | 0.00 | 0.00 | 89 | 1041.0 |
| 20260509075514 | 68 | 18 | 3.0 | 4.0 | 0.00 | 0.00 | 0.00 | 88 | 1041.0 |
| 20260509075012 | 69 | 33 | 2.0 | 4.0 | 0.00 | 0.00 | 0.00 | 87 | 1040.7 |
| 20260509074509 | 69 | 67 | 3.0 | 3.0 | 0.00 | 0.00 | 0.00 | 86 | 1041.0 |
| 20260509074005 | 69 | 8 | 0.0 | 1.0 | 0.00 | 0.00 | 0.00 | 86 | 1041.0 |
| 20260509073501 | 69 | 15 | 0.0 | 3.0 | 0.00 | 0.00 | 0.00 | 86 | 1040.6 |
| 20260509072958 | 70 | 232 | 2.0 | 3.0 | 0.00 | 0.00 | 0.00 | 86 | 1040.6 |
| 20260509072455 | 70 | 212 | 2.0 | 3.0 | 0.00 | 0.00 | 0.00 | 85 | 1040.6 |
| 20260509071951 | 70 | 214 | 4.0 | 5.0 | 0.00 | 0.00 | 0.00 | 85 | 1040.3 |
| 20260509071448 | 70 | 193 | 3.0 | 5.0 | 0.00 | 0.00 | 0.00 | 84 | 1040.5 |
| 20260509070946 | 70 | 208 | 3.0 | 5.0 | 0.00 | 0.00 | 0.00 | 84 | 1040.5 |
| 20260509070443 | 70 | 151 | 0.0 | 3.0 | 0.00 | 0.00 | 0.00 | 85 | 1040.4 |
| 20260509065938 | 70 | 291 | 2.0 | 4.0 | 0.00 | 0.00 | 0.00 | 85 | 1040.7 |
| 20260509065434 | 70 | 279 | 2.0 | 3.0 | 0.00 | 0.00 | 0.00 | 85 | 1040.9 |
| 20260509064931 | 69 | 258 | 0.0 | 2.0 | 0.00 | 0.00 | 0.00 | 85 | 1040.9 |
| 20260509064429 | 69 | 164 | 2.0 | 4.0 | 0.00 | 0.00 | 0.00 | 85 | 1041.1 |
| 20260509063926 | 69 | 252 | 2.0 | 3.0 | 0.00 | 0.00 | 0.00 | 86 | 1041.2 |
| 20260509063421 | 69 | 200 | 3.0 | 3.0 | 0.00 | 0.00 | 0.00 | 86 | 1041.1 |
| 20260509062919 | 69 | 190 | 0.0 | 2.0 | 0.00 | 0.00 | 0.00 | 85 | 1041.3 |
| 20260509062416 | 69 | 215 | 0.0 | 2.0 | 0.00 | 0.00 | 0.00 | 85 | 1041.6 |
| 20260509061914 | 69 | 327 | 1.0 | 3.0 | 0.00 | 0.00 | 0.00 | 85 | 1041.8 |
| 20260509061411 | 69 | 207 | 1.0 | 2.0 | 0.00 | 0.00 | 0.00 | 84 | 1041.4 |
| 20260509060908 | 69 | 303 | 2.0 | 3.0 | 0.00 | 0.00 | 0.00 | 85 | 1041.8 |
| 20260509060405 | 69 | 289 | 0.0 | 5.0 | 0.00 | 0.00 | 0.00 | 86 | 1041.7 |
| 20260509055900 | 69 | 109 | 0.0 | 1.0 | 0.00 | 0.00 | 0.00 | 86 | 1041.1 |
| 20260509055355 | 69 | 358 | 0.0 | 1.0 | 0.00 | 0.00 | 0.00 | 85 | 1041.7 |
| 20260509054853 | 69 | 260 | 0.0 | 1.0 | 0.00 | 0.00 | 0.00 | 85 | 1041.8 |
| 20260509054350 | 69 | 316 | 0.0 | 2.0 | 0.00 | 0.00 | 0.00 | 85 | 1041.8 |
| 20260509053848 | 69 | 299 | 0.0 | 2.0 | 0.00 | 0.00 | 0.00 | 85 | 1041.7 |
| 20260509053345 | 69 | 248 | 0.0 | 1.0 | 0.00 | 0.00 | 0.00 | 84 | 1041.6 |
| 20260509052843 | 69 | 84 | 4.0 | 4.0 | 0.00 | 0.00 | 0.00 | 84 | 1041.6 |
| 20260509052340 | 70 | 46 | 2.0 | 3.0 | 0.00 | 0.00 | 0.00 | 84 | 1041.7 |
| 20260509051838 | 70 | 41 | 3.0 | 3.0 | 0.00 | 0.00 | 0.00 | 83 | 1041.9 |
| 20260509051336 | 70 | 65 | 3.0 | 4.0 | 0.00 | 0.00 | 0.00 | 83 | 1041.4 |
| 20260509050832 | 70 | 63 | 3.0 | 3.0 | 0.00 | 0.00 | 0.00 | 83 | 1041.4 |
| 20260509050329 | 70 | 352 | 2.0 | 7.0 | 0.00 | 0.00 | 0.00 | 83 | 1041.5 |
| 20260509045826 | 70 | 338 | 10.0 | 12.0 | 0.00 | 0.00 | 0.00 | 83 | 1041.8 |
| 20260509045323 | 69 | 305 | 4.0 | 9.0 | 0.00 | 0.00 | 0.00 | 83 | 1039.7 |
| 20260509044820 | 69 | 197 | 4.0 | 12.0 | 0.00 | 0.00 | 0.00 | 83 | 1039.9 |
| 20260509044318 | 69 | 244 | 6.0 | 13.0 | 0.00 | 0.00 | 0.00 | 84 | 1040.0 |
| 20260509043814 | 69 | 231 | 2.0 | 7.0 | 0.00 | 0.00 | 0.00 | 84 | 1040.4 |
| 20260509043310 | 69 | 234 | 6.0 | 9.0 | 0.00 | 0.00 | 0.00 | 85 | 1040.4 |
| 20260509042806 | 69 | 244 | 2.0 | 5.0 | 0.00 | 0.00 | 0.00 | 85 | 1040.8 |
| 20260509042306 | 69 | 210 | 2.0 | 5.0 | 0.00 | 0.00 | 0.00 | 85 | 1040.9 |
| 20260509041759 | 69 | 275 | 2.0 | 4.0 | 0.00 | 0.00 | 0.00 | 85 | 1041.5 |
| 20260509041256 | 69 | 241 | 3.0 | 6.0 | 0.00 | 0.00 | 0.00 | 85 | 1041.5 |
| 20260509040755 | 68 | 268 | 3.0 | 7.0 | 0.00 | 0.00 | 0.00 | 85 | 1041.9 |
| 20260509040251 | 68 | 284 | 3.0 | 6.0 | 0.00 | 0.00 | 0.00 | 86 | 1041.7 |
| 20260509035748 | 68 | 292 | 1.0 | 3.0 | 0.00 | 0.00 | 0.00 | 86 | 1041.6 |
| 20260509035245 | 68 | 322 | 0.0 | 3.0 | 0.00 | 0.00 | 0.00 | 86 | 1041.9 |
| 20260509034742 | 68 | 299 | 3.0 | 4.0 | 0.00 | 0.00 | 0.00 | 87 | 1041.9 |
| 20260509034240 | 68 | 294 | 3.0 | 4.0 | 0.00 | 0.00 | 0.00 | 87 | 1041.8 |
| 20260509033736 | 68 | 301 | 2.0 | 3.0 | 0.00 | 0.00 | 0.00 | 86 | 1041.5 |
| 20260509033233 | 68 | 316 | 3.0 | 3.0 | 0.00 | 0.00 | 0.00 | 85 | 1041.6 |
| 20260509032730 | 69 | 349 | 2.0 | 3.0 | 0.00 | 0.00 | 0.00 | 85 | 1041.6 |
| 20260509032227 | 68 | 345 | 0.0 | 1.0 | 0.00 | 0.00 | 0.00 | 85 | 1041.3 |
| 20260509031725 | 68 | 149 | 0.0 | 1.0 | 0.00 | 0.00 | 0.00 | 86 | 1041.0 |
| 20260509031222 | 68 | 73 | 0.0 | 1.0 | 0.00 | 0.00 | 0.00 | 85 | 1041.0 |
| 20260509030720 | 68 | 70 | 1.0 | 2.0 | 0.00 | 0.00 | 0.00 | 85 | 1040.8 |
| 20260509030217 | 69 | 73 | 3.0 | 3.0 | 0.00 | 0.00 | 0.00 | 84 | 1040.7 |
| 20260509025714 | 69 | 71 | 3.0 | 3.0 | 0.00 | 0.00 | 0.00 | 83 | 1041.1 |
| 20260509025210 | 69 | 7 | 0.0 | 2.0 | 0.00 | 0.00 | 0.00 | 82 | 1040.9 |
| 20260509024705 | 70 | 69 | 0.0 | 0.0 | 0.00 | 0.00 | 0.00 | 82 | 1041.0 |
| 20260509024201 | 70 | 249 | 0.0 | 2.0 | 0.00 | 0.00 | 0.00 | 81 | 1040.8 |
| 20260509023659 | 70 | 229 | 2.0 | 3.0 | 0.00 | 0.00 | 0.00 | 81 | 1040.6 |
| 20260509023156 | 70 | 319 | 0.0 | 1.0 | 0.00 | 0.00 | 0.00 | 80 | 1040.7 |
| 20260509022652 | 71 | 149 | 2.0 | 3.0 | 0.00 | 0.00 | 0.00 | 79 | 1040.7 |
| 20260509022150 | 71 | 212 | 2.0 | 5.0 | 0.00 | 0.00 | 0.00 | 79 | 1040.4 |
| 20260509021646 | 71 | 220 | 2.0 | 4.0 | 0.00 | 0.00 | 0.00 | 80 | 1040.4 |
| 20260509021144 | 70 | 239 | 2.0 | 4.0 | 0.00 | 0.00 | 0.00 | 80 | 1040.3 |
| 20260509020642 | 71 | 198 | 2.0 | 5.0 | 0.00 | 0.00 | 0.00 | 79 | 1040.0 |
| 20260509020139 | 71 | 211 | 2.0 | 3.0 | 0.00 | 0.00 | 0.00 | 78 | 1040.4 |
| 20260509015637 | 71 | 261 | 2.0 | 2.0 | 0.00 | 0.00 | 0.00 | 77 | 1040.8 |
| 20260509015135 | 72 | 264 | 0.0 | 2.0 | 0.00 | 0.00 | 0.00 | 77 | 1040.8 |
| 20260509014631 | 72 | 297 | 1.0 | 2.0 | 0.00 | 0.00 | 0.00 | 76 | 1040.7 |
| 20260509014127 | 72 | 284 | 0.0 | 2.0 | 0.00 | 0.00 | 0.00 | 76 | 1040.4 |
| 20260509013625 | 73 | 287 | 1.0 | 2.0 | 0.00 | 0.00 | 0.00 | 76 | 1040.3 |
| 20260509013120 | 73 | 282 | 2.0 | 2.0 | 0.00 | 0.00 | 0.00 | 75 | 1040.1 |
| 20260509012617 | 73 | 188 | 2.0 | 3.0 | 0.00 | 0.00 | 0.00 | 75 | 1039.6 |
| 20260509012114 | 73 | 242 | 2.0 | 4.0 | 0.00 | 0.00 | 0.00 | 74 | 1039.6 |
| 20260509011612 | 73 | 286 | 3.0 | 5.0 | 0.00 | 0.00 | 0.00 | 74 | 1039.7 |
| 20260509011109 | 74 | 247 | 2.0 | 4.0 | 0.00 | 0.00 | 0.00 | 73 | 1039.5 |
| 20260509010607 | 74 | 193 | 2.0 | 4.0 | 0.00 | 0.00 | 0.00 | 73 | 1039.7 |
| 20260509005601 | 74 | 190 | 3.0 | 5.0 | 0.00 | 0.00 | 0.00 | 72 | 1039.3 |
| 20260509005056 | 75 | 197 | 3.0 | 4.0 | 0.00 | 0.00 | 0.00 | 71 | 1039.2 |
| 20260509004553 | 75 | 232 | 6.0 | 6.0 | 0.00 | 0.00 | 0.00 | 70 | 1039.2 |
| 20260509004050 | 76 | 222 | 0.0 | 6.0 | 0.00 | 0.00 | 0.00 | 70 | 1039.3 |
| 20260509003548 | 76 | 291 | 1.0 | 4.0 | 0.00 | 0.00 | 0.00 | 69 | 1039.4 |
| 20260509003045 | 77 | 177 | 5.0 | 5.0 | 0.00 | 0.00 | 0.00 | 68 | 1039.5 |
| 20260509002542 | 77 | 164 | 2.0 | 4.0 | 0.00 | 0.00 | 0.00 | 68 | 1039.3 |
| 20260509002040 | 77 | 278 | 2.0 | 4.0 | 0.00 | 0.00 | 0.00 | 67 | 1039.6 |
| 20260509001537 | 78 | 177 | 3.0 | 6.0 | 0.00 | 0.00 | 0.00 | 65 | 1039.5 |
| 20260509001033 | 79 | 229 | 2.0 | 5.0 | 0.00 | 0.00 | 0.00 | 65 | 1039.1 |
| 20260509000531 | 79 | 246 | 3.0 | 5.0 | 0.00 | 0.00 | 0.00 | 65 | 1039.3 |
| 20260509000027 | 79 | 256 | 3.0 | 3.0 | 0.00 | 0.00 | 0.00 | 64 | 1039.1 |
| 20260508235525 | 79 | 187 | 3.0 | 7.0 | 0.00 | 0.00 | 0.00 | 65 | 1039.2 |
| 20260508235021 | 79 | 247 | 9.0 | 12.0 | 0.00 | 0.00 | 0.00 | 64 | 1038.9 |
| 20260508234519 | 79 | 242 | 4.0 | 7.0 | 0.00 | 0.00 | 0.00 | 63 | 1039.1 |
| 20260508234015 | 79 | 262 | 3.0 | 6.0 | 0.00 | 0.00 | 0.00 | 63 | 1038.7 |
| 20260508233515 | 79 | 251 | 3.0 | 9.0 | 0.00 | 0.00 | 0.00 | 63 | 1039.0 |
| 20260508233012 | 79 | 204 | 6.0 | 7.0 | 0.00 | 0.00 | 0.00 | 62 | 1038.9 |
| 20260508232509 | 80 | 119 | 2.0 | 9.0 | 0.00 | 0.00 | 0.00 | 61 | 1038.8 |
| 20260508232005 | 79 | 254 | 2.0 | 9.0 | 0.00 | 0.00 | 0.00 | 62 | 1038.7 |
| 20260508231503 | 80 | 187 | 5.0 | 10.0 | 0.00 | 0.00 | 0.00 | 60 | 1038.8 |
| 20260508231000 | 80 | 239 | 3.0 | 8.0 | 0.00 | 0.00 | 0.00 | 60 | 1039.0 |
| 20260508230456 | 81 | 189 | 5.0 | 9.0 | 0.00 | 0.00 | 0.00 | 59 | 1038.6 |
| 20260508225953 | 81 | 180 | 7.0 | 9.0 | 0.00 | 0.00 | 0.00 | 59 | 1038.9 |
| 20260508225450 | 81 | 199 | 3.0 | 10.0 | 0.00 | 0.00 | 0.00 | 58 | 1038.9 |
| 20260508224947 | 82 | 165 | 6.0 | 9.0 | 0.00 | 0.00 | 0.00 | 56 | 1038.9 |
| 20260508224445 | 82 | 185 | 3.0 | 7.0 | 0.00 | 0.00 | 0.00 | 56 | 1039.2 |
| 20260508223942 | 82 | 202 | 2.0 | 6.0 | 0.00 | 0.00 | 0.00 | 56 | 1039.1 |
| 20260508223440 | 82 | 188 | 6.0 | 8.0 | 0.00 | 0.00 | 0.00 | 57 | 1039.1 |
| 20260508222937 | 82 | 253 | 2.0 | 6.0 | 0.00 | 0.00 | 0.00 | 55 | 1039.3 |
| 20260508222434 | 82 | 106 | 2.0 | 6.0 | 0.00 | 0.00 | 0.00 | 56 | 1039.1 |
| 20260508221931 | 82 | 201 | 3.0 | 11.0 | 0.00 | 0.00 | 0.00 | 54 | 1039.3 |
| 20260508221427 | 82 | 184 | 5.0 | 10.0 | 0.00 | 0.00 | 0.00 | 54 | 1039.5 |
| 20260508220923 | 82 | 181 | 1.0 | 6.0 | 0.00 | 0.00 | 0.00 | 54 | 1039.4 |
| 20260508220420 | 82 | 240 | 4.0 | 6.0 | 0.00 | 0.00 | 0.00 | 53 | 1039.3 |
| 20260508215916 | 82 | 203 | 3.0 | 6.0 | 0.00 | 0.00 | 0.00 | 55 | 1039.2 |
| 20260508215413 | 82 | 197 | 3.0 | 5.0 | 0.00 | 0.00 | 0.00 | 53 | 1039.4 |
| 20260508214909 | 81 | 178 | 3.0 | 5.0 | 0.00 | 0.00 | 0.00 | 54 | 1039.4 |
| 20260508214407 | 81 | 195 | 1.0 | 6.0 | 0.00 | 0.00 | 0.00 | 54 | 1039.3 |
| 20260508213903 | 81 | 186 | 4.0 | 7.0 | 0.00 | 0.00 | 0.00 | 53 | 1039.4 |
| 20260508213401 | 82 | 183 | 5.0 | 7.0 | 0.00 | 0.00 | 0.00 | 51 | 1039.7 |
| 20260508212856 | 81 | 162 | 3.0 | 5.0 | 0.00 | 0.00 | 0.00 | 53 | 1039.7 |
| 20260508212353 | 81 | 304 | 3.0 | 6.0 | 0.00 | 0.00 | 0.00 | 53 | 1039.8 |
| 20260508211849 | 81 | 210 | 5.0 | 8.0 | 0.00 | 0.00 | 0.00 | 52 | 1040.0 |
| 20260508211344 | 82 | 172 | 4.0 | 11.0 | 0.00 | 0.00 | 0.00 | 54 | 1040.1 |
| 20260508210842 | 81 | 150 | 1.0 | 10.0 | 0.00 | 0.00 | 0.00 | 54 | 1040.0 |
| 20260508210338 | 81 | 160 | 3.0 | 8.0 | 0.00 | 0.00 | 0.00 | 55 | 1040.5 |
| 20260508205835 | 81 | 181 | 2.0 | 9.0 | 0.00 | 0.00 | 0.00 | 55 | 1040.4 |
| 20260508205332 | 81 | 230 | 3.0 | 5.0 | 0.00 | 0.00 | 0.00 | 56 | 1040.4 |
| 20260508204828 | 81 | 182 | 5.0 | 10.0 | 0.00 | 0.00 | 0.00 | 53 | 1040.7 |
| 20260508204325 | 80 | 232 | 3.0 | 6.0 | 0.00 | 0.00 | 0.00 | 54 | 1040.7 |
| 20260508203821 | 80 | 220 | 4.0 | 10.0 | 0.00 | 0.00 | 0.00 | 54 | 1040.7 |
| 20260508203318 | 80 | 194 | 6.0 | 7.0 | 0.00 | 0.00 | 0.00 | 54 | 1040.8 |
| 20260508202813 | 80 | 166 | 8.0 | 11.0 | 0.00 | 0.00 | 0.00 | 53 | 1040.6 |
| 20260508202311 | 80 | 180 | 6.0 | 10.0 | 0.00 | 0.00 | 0.00 | 54 | 1040.6 |
| 20260508201808 | 80 | 191 | 6.0 | 7.0 | 0.00 | 0.00 | 0.00 | 53 | 1040.7 |
| 20260508201305 | 80 | 200 | 3.0 | 11.0 | 0.00 | 0.00 | 0.00 | 53 | 1041.0 |
| 20260508200801 | 80 | 173 | 6.0 | 10.0 | 0.00 | 0.00 | 0.00 | 53 | 1041.0 |
| 20260508200257 | 80 | 166 | 5.0 | 10.0 | 0.00 | 0.00 | 0.00 | 56 | 1041.1 |
| 20260508195754 | 80 | 211 | 3.0 | 11.0 | 0.00 | 0.00 | 0.00 | 54 | 1041.0 |
| 20260508195250 | 79 | 159 | 1.0 | 10.0 | 0.00 | 0.00 | 0.00 | 53 | 1041.2 |
| 20260508194747 | 80 | 147 | 9.0 | 14.0 | 0.00 | 0.00 | 0.00 | 52 | 1041.1 |
| 20260508194244 | 80 | 194 | 3.0 | 9.0 | 0.00 | 0.00 | 0.00 | 54 | 1041.1 |
| 20260508193741 | 79 | 179 | 7.0 | 9.0 | 0.00 | 0.00 | 0.00 | 53 | 1041.1 |
| 20260508193237 | 80 | 163 | 6.0 | 9.0 | 0.00 | 0.00 | 0.00 | 53 | 1041.4 |
| 20260508192734 | 79 | 202 | 3.0 | 5.0 | 0.00 | 0.00 | 0.00 | 55 | 1041.3 |
| 20260508192231 | 79 | 178 | 8.0 | 9.0 | 0.00 | 0.00 | 0.00 | 53 | 1041.4 |
| 20260508191728 | 79 | 208 | 5.0 | 11.0 | 0.00 | 0.00 | 0.00 | 54 | 1041.5 |
| 20260508191225 | 78 | 168 | 5.0 | 8.0 | 0.00 | 0.00 | 0.00 | 54 | 1041.6 |
| 20260508190722 | 79 | 292 | 3.0 | 8.0 | 0.00 | 0.00 | 0.00 | 53 | 1041.3 |
| 20260508190218 | 79 | 168 | 4.0 | 10.0 | 0.00 | 0.00 | 0.00 | 52 | 1041.6 |
| 20260508185715 | 79 | 251 | 3.0 | 7.0 | 0.00 | 0.00 | 0.00 | 54 | 1041.7 |
| 20260508185213 | 78 | 270 | 4.0 | 5.0 | 0.00 | 0.00 | 0.00 | 54 | 1041.8 |
| 20260508184710 | 78 | 188 | 3.0 | 9.0 | 0.00 | 0.00 | 0.00 | 51 | 1041.9 |
| 20260508184207 | 78 | 218 | 5.0 | 6.0 | 0.00 | 0.00 | 0.00 | 52 | 1042.0 |
| 20260508183704 | 77 | 189 | 5.0 | 13.0 | 0.00 | 0.00 | 0.00 | 51 | 1042.1 |
| 20260508183200 | 77 | 206 | 3.0 | 7.0 | 0.00 | 0.00 | 0.00 | 56 | 1042.1 |
| 20260508182656 | 77 | 217 | 2.0 | 7.0 | 0.00 | 0.00 | 0.00 | 55 | 1042.7 |
| 20260508182153 | 77 | 173 | 4.0 | 5.0 | 0.00 | 0.00 | 0.00 | 54 | 1042.7 |
| 20260508181649 | 77 | 222 | 3.0 | 4.0 | 0.00 | 0.00 | 0.00 | 56 | 1042.7 |
| 20260508181145 | 76 | 124 | 5.0 | 6.0 | 0.00 | 0.00 | 0.00 | 57 | 1042.9 |
| 20260508180642 | 76 | 152 | 5.0 | 6.0 | 0.00 | 0.00 | 0.00 | 56 | 1042.8 |
| 20260508180139 | 76 | 170 | 3.0 | 7.0 | 0.00 | 0.00 | 0.00 | 55 | 1043.2 |
| 20260508175636 | 75 | 250 | 1.0 | 7.0 | 0.00 | 0.00 | 0.00 | 58 | 1043.4 |
| 20260508175132 | 76 | 229 | 3.0 | 5.0 | 0.00 | 0.00 | 0.00 | 58 | 1043.4 |
| 20260508174630 | 76 | 246 | 2.0 | 6.0 | 0.00 | 0.00 | 0.00 | 57 | 1043.6 |
| 20260508174127 | 75 | 169 | 6.0 | 6.0 | 0.00 | 0.00 | 0.00 | 60 | 1043.6 |
| 20260508173624 | 75 | 142 | 4.0 | 7.0 | 0.00 | 0.00 | 0.00 | 59 | 1043.6 |
| 20260508173120 | 75 | 341 | 1.0 | 4.0 | 0.00 | 0.00 | 0.00 | 61 | 1043.7 |
| 20260508172617 | 75 | 275 | 3.0 | 10.0 | 0.00 | 0.00 | 0.00 | 60 | 1043.8 |
| 20260508172113 | 75 | 232 | 2.0 | 11.0 | 0.00 | 0.00 | 0.00 | 58 | 1043.7 |
| 20260508171610 | 75 | 168 | 2.0 | 6.0 | 0.00 | 0.00 | 0.00 | 61 | 1043.7 |
| 20260508171107 | 75 | 141 | 5.0 | 9.0 | 0.00 | 0.00 | 0.00 | 60 | 1043.8 |
| 20260508170604 | 74 | 131 | 3.0 | 9.0 | 0.00 | 0.00 | 0.00 | 63 | 1044.0 |
| 20260508165558 | 73 | 147 | 4.0 | 7.0 | 0.00 | 0.00 | 0.00 | 64 | 1044.4 |
| 20260508165055 | 73 | 254 | 4.0 | 5.0 | 0.00 | 0.00 | 0.00 | 64 | 1044.3 |
| 20260508164551 | 72 | 189 | 7.0 | 9.0 | 0.00 | 0.00 | 0.00 | 64 | 1044.5 |
| 20260508164048 | 72 | 179 | 5.0 | 9.0 | 0.00 | 0.00 | 0.00 | 63 | 1044.4 |
| 20260508163546 | 72 | 113 | 1.0 | 7.0 | 0.00 | 0.00 | 0.00 | 65 | 1044.8 |
| 20260508163042 | 71 | 172 | 5.0 | 5.0 | 0.00 | 0.00 | 0.00 | 68 | 1044.7 |
| 20260508162539 | 70 | 266 | 2.0 | 5.0 | 0.00 | 0.00 | 0.00 | 69 | 1044.7 |
| 20260508162037 | 70 | 191 | 1.0 | 6.0 | 0.00 | 0.00 | 0.00 | 68 | 1044.8 |
| 20260508161533 | 70 | 170 | 3.0 | 6.0 | 0.00 | 0.00 | 0.00 | 68 | 1045.0 |
| 20260508161030 | 69 | 263 | 5.0 | 8.0 | 0.00 | 0.00 | 0.00 | 69 | 1045.3 |
| 20260508160529 | 69 | 274 | 1.0 | 5.0 | 0.00 | 0.00 | 0.00 | 70 | 1044.9 |
| 20260508160025 | 69 | 219 | 3.0 | 4.0 | 0.00 | 0.00 | 0.00 | 69 | 1045.2 |
| 20260508155522 | 69 | 181 | 4.0 | 5.0 | 0.00 | 0.00 | 0.00 | 68 | 1045.5 |
| 20260508155019 | 68 | 176 | 2.0 | 5.0 | 0.00 | 0.00 | 0.00 | 68 | 1045.4 |
| 20260508154517 | 69 | 172 | 4.0 | 7.0 | 0.00 | 0.00 | 0.00 | 66 | 1045.4 |
| 20260508154013 | 69 | 165 | 5.0 | 6.0 | 0.00 | 0.00 | 0.00 | 64 | 1045.3 |
| 20260508153510 | 71 | 268 | 8.0 | 8.0 | 0.00 | 0.00 | 0.00 | 65 | 1045.7 |
| 20260508153007 | 71 | 281 | 3.0 | 6.0 | 0.00 | 0.00 | 0.00 | 66 | 1045.6 |
| 20260508152503 | 69 | 196 | 2.0 | 7.0 | 0.00 | 0.00 | 0.00 | 67 | 1045.2 |
| 20260508151959 | 69 | 195 | 4.0 | 10.0 | 0.00 | 0.00 | 0.00 | 66 | 1045.5 |
| 20260508151456 | 69 | 258 | 4.0 | 7.0 | 0.00 | 0.00 | 0.00 | 70 | 1045.3 |
| 20260508150952 | 68 | 215 | 6.0 | 6.0 | 0.00 | 0.00 | 0.00 | 72 | 1045.3 |
| 20260508150449 | 67 | 211 | 4.0 | 5.0 | 0.00 | 0.00 | 0.00 | 72 | 1045.3 |
| 20260508145945 | 68 | 180 | 7.0 | 10.0 | 0.00 | 0.00 | 0.00 | 70 | 1045.3 |
| 20260508145442 | 68 | 181 | 6.0 | 6.0 | 0.00 | 0.00 | 0.00 | 72 | 1045.5 |
| 20260508144939 | 67 | 200 | 3.0 | 5.0 | 0.00 | 0.00 | 0.00 | 74 | 1045.9 |
| 20260508144436 | 67 | 207 | 2.0 | 8.0 | 0.00 | 0.00 | 0.00 | 74 | 1046.0 |
| 20260508143934 | 66 | 244 | 3.0 | 5.0 | 0.00 | 0.00 | 0.00 | 76 | 1046.0 |
| 20260508143431 | 66 | 198 | 4.0 | 6.0 | 0.00 | 0.00 | 0.00 | 77 | 1046.1 |
| 20260508142927 | 65 | 225 | 3.0 | 6.0 | 0.00 | 0.00 | 0.00 | 78 | 1045.9 |
| 20260508142425 | 64 | 213 | 3.0 | 7.0 | 0.00 | 0.00 | 0.00 | 79 | 1045.8 |
| 20260508141921 | 65 | 226 | 3.0 | 6.0 | 0.00 | 0.00 | 0.00 | 78 | 1046.2 |
| 20260508141418 | 65 | 184 | 6.0 | 12.0 | 0.00 | 0.00 | 0.00 | 77 | 1045.9 |
| 20260508140915 | 65 | 200 | 2.0 | 9.0 | 0.00 | 0.00 | 0.00 | 77 | 1045.7 |
| 20260508140412 | 66 | 218 | 3.0 | 7.0 | 0.00 | 0.00 | 0.00 | 77 | 1045.9 |
| 20260508135908 | 66 | 159 | 1.0 | 5.0 | 0.00 | 0.00 | 0.00 | 77 | 1045.8 |
| 20260508135405 | 66 | 193 | 2.0 | 6.0 | 0.00 | 0.00 | 0.00 | 78 | 1045.6 |
| 20260508134901 | 66 | 210 | 3.0 | 6.0 | 0.00 | 0.00 | 0.00 | 76 | 1045.7 |
| 20260508134357 | 65 | 259 | 2.0 | 3.0 | 0.00 | 0.00 | 0.00 | 80 | 1045.9 |
| 20260508133854 | 65 | 186 | 2.0 | 5.0 | 0.00 | 0.00 | 0.00 | 80 | 1046.1 |
| 20260508133352 | 63 | 203 | 3.0 | 4.0 | 0.00 | 0.00 | 0.00 | 84 | 1045.9 |
| 20260508132849 | 62 | 272 | 3.0 | 5.0 | 0.00 | 0.00 | 0.00 | 85 | 1046.4 |
| 20260508132347 | 62 | 176 | 3.0 | 5.0 | 0.00 | 0.00 | 0.00 | 85 | 1046.2 |
| 20260508131843 | 62 | 196 | 3.0 | 5.0 | 0.00 | 0.00 | 0.00 | 84 | 1046.1 |
| 20260508131339 | 62 | 199 | 3.0 | 6.0 | 0.00 | 0.00 | 0.00 | 85 | 1046.6 |
| 20260508130836 | 60 | 206 | 1.0 | 3.0 | 0.00 | 0.00 | 0.00 | 88 | 1046.6 |
| 20260508130332 | 60 | 252 | 2.0 | 4.0 | 0.00 | 0.00 | 0.00 | 89 | 1046.1 |
| 20260508125829 | 59 | 226 | 3.0 | 3.0 | 0.00 | 0.00 | 0.00 | 88 | 1046.0 |
| 20260508125325 | 60 | 244 | 2.0 | 4.0 | 0.00 | 0.00 | 0.00 | 88 | 1046.0 |
| 20260508124823 | 59 | 224 | 3.0 | 3.0 | 0.00 | 0.00 | 0.00 | 88 | 1046.0 |
| 20260508124320 | 59 | 203 | 2.0 | 3.0 | 0.00 | 0.00 | 0.00 | 88 | 1045.7 |